sensor_id;sensor_type;location;lat;lon;timestamp;P1;durP1;ratioP1;P2;durP2;ratioP2
12228;SDS011;6177;52.402;9.800;2023-01-28T00:02:04;0.83;;;0.73;;
12228;SDS011;6177;52.402;9.800;2023-01-28T00:04:56;1.23;;;0.70;;
12228;SDS011;6177;52.402;9.800;2023-01-28T00:07:47;1.37;;;0.60;;
12228;SDS011;6177;52.402;9.800;2023-01-28T00:10:39;0.93;;;0.70;;
12228;SDS011;6177;52.402;9.800;2023-01-28T00:13:31;2.20;;;0.60;;
12228;SDS011;6177;52.402;9.800;2023-01-28T00:16:21;1.30;;;0.60;;
12228;SDS011;6177;52.402;9.800;2023-01-28T00:19:12;0.60;;;0.40;;
12228;SDS011;6177;52.402;9.800;2023-01-28T00:22:04;0.90;;;0.60;;
12228;SDS011;6177;52.402;9.800;2023-01-28T00:24:55;2.27;;;0.60;;
12228;SDS011;6177;52.402;9.800;2023-01-28T00:27:46;1.13;;;0.73;;
12228;SDS011;6177;52.402;9.800;2023-01-28T00:30:39;2.17;;;0.77;;
12228;SDS011;6177;52.402;9.800;2023-01-28T00:33:30;0.67;;;0.67;;
12228;SDS011;6177;52.402;9.800;2023-01-28T00:36:21;0.77;;;0.60;;
12228;SDS011;6177;52.402;9.800;2023-01-28T00:39:13;1.13;;;0.50;;
12228;SDS011;6177;52.402;9.800;2023-01-28T00:42:05;0.60;;;0.60;;
12228;SDS011;6177;52.402;9.800;2023-01-28T00:44:55;0.70;;;0.70;;
12228;SDS011;6177;52.402;9.800;2023-01-28T00:47:45;1.80;;;0.60;;
12228;SDS011;6177;52.402;9.800;2023-01-28T00:50:38;0.87;;;0.87;;
12228;SDS011;6177;52.402;9.800;2023-01-28T00:53:30;0.70;;;0.50;;
12228;SDS011;6177;52.402;9.800;2023-01-28T00:56:20;1.13;;;0.50;;
12228;SDS011;6177;52.402;9.800;2023-01-28T00:59:11;1.73;;;0.73;;
12228;SDS011;6177;52.402;9.800;2023-01-28T01:02:03;1.87;;;0.77;;
12228;SDS011;6177;52.402;9.800;2023-01-28T01:05:01;1.63;;;1.00;;
12228;SDS011;6177;52.402;9.800;2023-01-28T01:07:53;0.90;;;0.77;;
12228;SDS011;6177;52.402;9.800;2023-01-28T01:10:44;1.97;;;1.20;;
12228;SDS011;6177;52.402;9.800;2023-01-28T01:13:35;0.80;;;0.80;;
12228;SDS011;6177;52.402;9.800;2023-01-28T01:16:28;1.13;;;0.70;;
12228;SDS011;6177;52.402;9.800;2023-01-28T01:19:20;0.50;;;0.50;;
12228;SDS011;6177;52.402;9.800;2023-01-28T01:22:11;3.60;;;1.20;;
12228;SDS011;6177;52.402;9.800;2023-01-28T01:25:02;1.90;;;0.70;;
12228;SDS011;6177;52.402;9.800;2023-01-28T01:27:53;0.57;;;0.57;;
12228;SDS011;6177;52.402;9.800;2023-01-28T01:30:45;1.47;;;0.70;;
12228;SDS011;6177;52.402;9.800;2023-01-28T01:33:36;1.90;;;0.87;;
12228;SDS011;6177;52.402;9.800;2023-01-28T01:36:29;1.37;;;0.50;;
12228;SDS011;6177;52.402;9.800;2023-01-28T01:39:20;0.73;;;0.50;;
12228;SDS011;6177;52.402;9.800;2023-01-28T01:42:12;1.47;;;1.10;;
12228;SDS011;6177;52.402;9.800;2023-01-28T01:53:45;0.67;;;0.63;;
12228;SDS011;6177;52.402;9.800;2023-01-28T01:56:38;1.60;;;0.80;;
12228;SDS011;6177;52.402;9.800;2023-01-28T01:59:31;1.53;;;0.77;;
12228;SDS011;6177;52.402;9.800;2023-01-28T02:02:22;0.60;;;0.60;;
12228;SDS011;6177;52.402;9.800;2023-01-28T02:05:15;1.13;;;0.50;;
12228;SDS011;6177;52.402;9.800;2023-01-28T02:08:08;1.10;;;1.00;;
12228;SDS011;6177;52.402;9.800;2023-01-28T02:11:10;0.97;;;0.97;;
12228;SDS011;6177;52.402;9.800;2023-01-28T02:14:04;0.77;;;0.77;;
12228;SDS011;6177;52.402;9.800;2023-01-28T02:16:55;3.17;;;0.90;;
12228;SDS011;6177;52.402;9.800;2023-01-28T02:29:37;0.67;;;0.67;;
12228;SDS011;6177;52.402;9.800;2023-01-28T02:32:42;1.13;;;0.90;;
12228;SDS011;6177;52.402;9.800;2023-01-28T02:38:31;2.03;;;0.93;;
12228;SDS011;6177;52.402;9.800;2023-01-28T02:41:24;1.53;;;0.80;;
12228;SDS011;6177;52.402;9.800;2023-01-28T02:44:19;2.03;;;0.90;;
12228;SDS011;6177;52.402;9.800;2023-01-28T02:47:10;1.70;;;0.90;;
12228;SDS011;6177;52.402;9.800;2023-01-28T02:50:19;2.63;;;1.00;;
12228;SDS011;6177;52.402;9.800;2023-01-28T02:53:15;0.73;;;0.70;;
12228;SDS011;6177;52.402;9.800;2023-01-28T02:56:30;1.47;;;0.80;;
12228;SDS011;6177;52.402;9.800;2023-01-28T02:59:27;2.40;;;0.87;;
12228;SDS011;6177;52.402;9.800;2023-01-28T03:02:49;1.53;;;0.63;;
12228;SDS011;6177;52.402;9.800;2023-01-28T03:05:50;0.50;;;0.50;;
12228;SDS011;6177;52.402;9.800;2023-01-28T03:08:58;3.77;;;0.87;;
12228;SDS011;6177;52.402;9.800;2023-01-28T03:12:11;1.60;;;1.20;;
12228;SDS011;6177;52.402;9.800;2023-01-28T03:15:34;0.93;;;0.87;;
12228;SDS011;6177;52.402;9.800;2023-01-28T03:18:47;2.07;;;0.60;;
12228;SDS011;6177;52.402;9.800;2023-01-28T03:21:58;1.03;;;0.60;;
12228;SDS011;6177;52.402;9.800;2023-01-28T03:25:12;0.90;;;0.60;;
12228;SDS011;6177;52.402;9.800;2023-01-28T03:28:28;1.50;;;0.70;;
12228;SDS011;6177;52.402;9.800;2023-01-28T03:31:37;0.90;;;0.90;;
12228;SDS011;6177;52.402;9.800;2023-01-28T03:34:47;1.40;;;0.60;;
12228;SDS011;6177;52.402;9.800;2023-01-28T03:37:58;1.20;;;0.67;;
12228;SDS011;6177;52.402;9.800;2023-01-28T03:40:54;1.33;;;0.60;;
12228;SDS011;6177;52.402;9.800;2023-01-28T03:43:45;0.60;;;0.60;;
12228;SDS011;6177;52.402;9.800;2023-01-28T03:46:37;1.17;;;0.70;;
12228;SDS011;6177;52.402;9.800;2023-01-28T03:49:30;3.20;;;0.90;;
12228;SDS011;6177;52.402;9.800;2023-01-28T03:52:21;2.30;;;0.83;;
12228;SDS011;6177;52.402;9.800;2023-01-28T03:55:14;0.70;;;0.70;;
12228;SDS011;6177;52.402;9.800;2023-01-28T03:58:05;0.50;;;0.50;;
12228;SDS011;6177;52.402;9.800;2023-01-28T04:00:56;1.43;;;0.60;;
12228;SDS011;6177;52.402;9.800;2023-01-28T04:03:47;1.50;;;0.80;;
12228;SDS011;6177;52.402;9.800;2023-01-28T04:06:42;1.70;;;1.10;;
12228;SDS011;6177;52.402;9.800;2023-01-28T04:10:01;1.13;;;0.70;;
12228;SDS011;6177;52.402;9.800;2023-01-28T04:13:10;0.60;;;0.57;;
12228;SDS011;6177;52.402;9.800;2023-01-28T04:16:01;0.80;;;0.80;;
12228;SDS011;6177;52.402;9.800;2023-01-28T04:18:55;1.10;;;0.93;;
12228;SDS011;6177;52.402;9.800;2023-01-28T04:21:47;0.70;;;0.70;;
12228;SDS011;6177;52.402;9.800;2023-01-28T04:24:39;0.80;;;0.80;;
12228;SDS011;6177;52.402;9.800;2023-01-28T04:27:30;1.53;;;1.27;;
12228;SDS011;6177;52.402;9.800;2023-01-28T04:30:27;1.60;;;0.90;;
12228;SDS011;6177;52.402;9.800;2023-01-28T04:33:47;0.80;;;0.63;;
12228;SDS011;6177;52.402;9.800;2023-01-28T04:36:49;2.30;;;1.27;;
12228;SDS011;6177;52.402;9.800;2023-01-28T04:40:05;4.43;;;1.33;;
12228;SDS011;6177;52.402;9.800;2023-01-28T04:43:09;2.90;;;0.80;;
12228;SDS011;6177;52.402;9.800;2023-01-28T04:46:18;1.97;;;0.60;;
12228;SDS011;6177;52.402;9.800;2023-01-28T04:49:25;2.40;;;0.77;;
12228;SDS011;6177;52.402;9.800;2023-01-28T04:52:34;2.10;;;0.50;;
12228;SDS011;6177;52.402;9.800;2023-01-28T04:55:32;0.70;;;0.70;;
12228;SDS011;6177;52.402;9.800;2023-01-28T04:58:24;2.63;;;0.90;;
12228;SDS011;6177;52.402;9.800;2023-01-28T05:01:19;1.83;;;0.87;;
12228;SDS011;6177;52.402;9.800;2023-01-28T05:04:09;1.00;;;0.60;;
12228;SDS011;6177;52.402;9.800;2023-01-28T05:07:02;0.70;;;0.50;;
12228;SDS011;6177;52.402;9.800;2023-01-28T05:09:55;1.30;;;0.57;;
12228;SDS011;6177;52.402;9.800;2023-01-28T05:12:46;0.73;;;0.57;;
12228;SDS011;6177;52.402;9.800;2023-01-28T05:15:37;0.70;;;0.70;;
12228;SDS011;6177;52.402;9.800;2023-01-28T05:18:28;1.70;;;0.93;;
12228;SDS011;6177;52.402;9.800;2023-01-28T05:21:32;0.60;;;0.50;;
12228;SDS011;6177;52.402;9.800;2023-01-28T05:24:26;1.10;;;0.70;;
12228;SDS011;6177;52.402;9.800;2023-01-28T05:27:17;0.73;;;0.50;;
12228;SDS011;6177;52.402;9.800;2023-01-28T05:30:07;1.17;;;0.60;;
12228;SDS011;6177;52.402;9.800;2023-01-28T05:32:59;0.90;;;0.70;;
12228;SDS011;6177;52.402;9.800;2023-01-28T05:35:50;1.10;;;0.80;;
12228;SDS011;6177;52.402;9.800;2023-01-28T05:38:43;1.57;;;0.80;;
12228;SDS011;6177;52.402;9.800;2023-01-28T05:41:33;1.00;;;0.67;;
12228;SDS011;6177;52.402;9.800;2023-01-28T05:44:26;2.43;;;0.70;;
12228;SDS011;6177;52.402;9.800;2023-01-28T05:47:42;1.40;;;1.10;;
12228;SDS011;6177;52.402;9.800;2023-01-28T05:51:03;0.90;;;0.90;;
12228;SDS011;6177;52.402;9.800;2023-01-28T05:54:00;1.37;;;0.67;;
12228;SDS011;6177;52.402;9.800;2023-01-28T05:56:51;2.00;;;1.00;;
12228;SDS011;6177;52.402;9.800;2023-01-28T05:59:41;0.70;;;0.63;;
12228;SDS011;6177;52.402;9.800;2023-01-28T06:02:31;0.60;;;0.47;;
12228;SDS011;6177;52.402;9.800;2023-01-28T06:05:23;0.83;;;0.60;;
12228;SDS011;6177;52.402;9.800;2023-01-28T06:08:15;0.70;;;0.70;;
12228;SDS011;6177;52.402;9.800;2023-01-28T06:11:06;3.03;;;0.90;;
12228;SDS011;6177;52.402;9.800;2023-01-28T06:13:58;1.10;;;0.80;;
12228;SDS011;6177;52.402;9.800;2023-01-28T06:17:05;0.73;;;0.73;;
12228;SDS011;6177;52.402;9.800;2023-01-28T06:20:06;1.07;;;0.70;;
12228;SDS011;6177;52.402;9.800;2023-01-28T06:23:00;0.83;;;0.70;;
12228;SDS011;6177;52.402;9.800;2023-01-28T06:25:54;0.60;;;0.60;;
12228;SDS011;6177;52.402;9.800;2023-01-28T06:28:46;1.20;;;1.20;;
12228;SDS011;6177;52.402;9.800;2023-01-28T06:31:37;1.20;;;1.10;;
12228;SDS011;6177;52.402;9.800;2023-01-28T06:34:28;1.10;;;1.00;;
12228;SDS011;6177;52.402;9.800;2023-01-28T06:37:19;1.43;;;0.93;;
12228;SDS011;6177;52.402;9.800;2023-01-28T06:40:10;0.80;;;0.80;;
12228;SDS011;6177;52.402;9.800;2023-01-28T06:43:01;1.80;;;0.80;;
12228;SDS011;6177;52.402;9.800;2023-01-28T06:45:52;1.13;;;0.80;;
12228;SDS011;6177;52.402;9.800;2023-01-28T06:48:44;2.37;;;1.13;;
12228;SDS011;6177;52.402;9.800;2023-01-28T06:51:35;2.33;;;0.80;;
12228;SDS011;6177;52.402;9.800;2023-01-28T06:54:26;0.60;;;0.60;;
12228;SDS011;6177;52.402;9.800;2023-01-28T06:57:17;0.73;;;0.60;;
12228;SDS011;6177;52.402;9.800;2023-01-28T07:00:09;0.87;;;0.60;;
12228;SDS011;6177;52.402;9.800;2023-01-28T07:03:02;1.83;;;0.70;;
12228;SDS011;6177;52.402;9.800;2023-01-28T07:05:53;2.13;;;1.23;;
12228;SDS011;6177;52.402;9.800;2023-01-28T07:08:44;2.53;;;1.00;;
12228;SDS011;6177;52.402;9.800;2023-01-28T07:11:35;0.70;;;0.70;;
12228;SDS011;6177;52.402;9.800;2023-01-28T07:14:26;1.00;;;1.00;;
12228;SDS011;6177;52.402;9.800;2023-01-28T07:17:17;0.70;;;0.70;;
12228;SDS011;6177;52.402;9.800;2023-01-28T07:20:09;0.80;;;0.80;;
12228;SDS011;6177;52.402;9.800;2023-01-28T07:23:01;1.07;;;1.07;;
12228;SDS011;6177;52.402;9.800;2023-01-28T07:25:52;0.80;;;0.80;;
12228;SDS011;6177;52.402;9.800;2023-01-28T07:28:43;1.10;;;0.70;;
12228;SDS011;6177;52.402;9.800;2023-01-28T07:31:34;1.63;;;0.93;;
12228;SDS011;6177;52.402;9.800;2023-01-28T07:34:25;0.90;;;0.90;;
12228;SDS011;6177;52.402;9.800;2023-01-28T07:37:16;2.07;;;1.80;;
12228;SDS011;6177;52.402;9.800;2023-01-28T07:40:07;1.20;;;1.10;;
12228;SDS011;6177;52.402;9.800;2023-01-28T07:42:59;0.83;;;0.83;;
12228;SDS011;6177;52.402;9.800;2023-01-28T07:45:51;1.50;;;1.40;;
12228;SDS011;6177;52.402;9.800;2023-01-28T07:48:42;4.80;;;4.47;;
12228;SDS011;6177;52.402;9.800;2023-01-28T07:51:33;4.90;;;4.60;;
12228;SDS011;6177;52.402;9.800;2023-01-28T07:54:24;1.47;;;1.47;;
12228;SDS011;6177;52.402;9.800;2023-01-28T07:57:15;2.83;;;1.60;;
12228;SDS011;6177;52.402;9.800;2023-01-28T08:00:12;2.83;;;1.30;;
12228;SDS011;6177;52.402;9.800;2023-01-28T08:03:06;1.67;;;1.40;;
12228;SDS011;6177;52.402;9.800;2023-01-28T08:06:00;7.93;;;6.77;;
12228;SDS011;6177;52.402;9.800;2023-01-28T08:08:51;2.10;;;1.97;;
12228;SDS011;6177;52.402;9.800;2023-01-28T08:11:42;4.00;;;3.60;;
12228;SDS011;6177;52.402;9.800;2023-01-28T08:14:33;1.40;;;1.23;;
12228;SDS011;6177;52.402;9.800;2023-01-28T08:17:24;1.13;;;1.13;;
12228;SDS011;6177;52.402;9.800;2023-01-28T08:20:15;2.03;;;1.07;;
12228;SDS011;6177;52.402;9.800;2023-01-28T08:23:11;3.33;;;1.03;;
12228;SDS011;6177;52.402;9.800;2023-01-28T08:26:06;1.53;;;1.43;;
12228;SDS011;6177;52.402;9.800;2023-01-28T08:28:57;2.10;;;1.07;;
12228;SDS011;6177;52.402;9.800;2023-01-28T08:31:48;1.20;;;1.10;;
12228;SDS011;6177;52.402;9.800;2023-01-28T08:34:39;1.60;;;1.10;;
12228;SDS011;6177;52.402;9.800;2023-01-28T08:37:30;1.17;;;1.13;;
12228;SDS011;6177;52.402;9.800;2023-01-28T08:40:21;1.10;;;1.00;;
12228;SDS011;6177;52.402;9.800;2023-01-28T08:43:12;1.60;;;1.30;;
12228;SDS011;6177;52.402;9.800;2023-01-28T08:46:06;1.27;;;0.90;;
12228;SDS011;6177;52.402;9.800;2023-01-28T08:48:57;1.43;;;1.00;;
12228;SDS011;6177;52.402;9.800;2023-01-28T08:51:48;0.83;;;0.83;;
12228;SDS011;6177;52.402;9.800;2023-01-28T08:54:39;3.40;;;3.10;;
12228;SDS011;6177;52.402;9.800;2023-01-28T08:57:30;3.60;;;2.77;;
12228;SDS011;6177;52.402;9.800;2023-01-28T09:00:21;2.00;;;1.57;;
12228;SDS011;6177;52.402;9.800;2023-01-28T09:03:12;2.37;;;2.07;;
12228;SDS011;6177;52.402;9.800;2023-01-28T09:06:03;1.93;;;1.53;;
12228;SDS011;6177;52.402;9.800;2023-01-28T09:09:00;2.57;;;1.30;;
12228;SDS011;6177;52.402;9.800;2023-01-28T09:11:51;1.50;;;1.10;;
12228;SDS011;6177;52.402;9.800;2023-01-28T09:14:42;1.20;;;1.20;;
12228;SDS011;6177;52.402;9.800;2023-01-28T09:17:33;1.67;;;1.43;;
12228;SDS011;6177;52.402;9.800;2023-01-28T09:20:24;0.93;;;0.90;;
12228;SDS011;6177;52.402;9.800;2023-01-28T09:23:16;1.10;;;1.00;;
12228;SDS011;6177;52.402;9.800;2023-01-28T09:26:07;1.43;;;1.00;;
12228;SDS011;6177;52.402;9.800;2023-01-28T09:28:59;2.00;;;1.20;;
12228;SDS011;6177;52.402;9.800;2023-01-28T09:31:50;1.33;;;1.30;;
12228;SDS011;6177;52.402;9.800;2023-01-28T09:34:41;1.70;;;1.60;;
12228;SDS011;6177;52.402;9.800;2023-01-28T09:37:33;1.50;;;1.40;;
12228;SDS011;6177;52.402;9.800;2023-01-28T09:46:31;2.00;;;1.40;;
12228;SDS011;6177;52.402;9.800;2023-01-28T09:49:34;2.67;;;2.47;;
12228;SDS011;6177;52.402;9.800;2023-01-28T09:52:33;1.30;;;1.20;;
12228;SDS011;6177;52.402;9.800;2023-01-28T09:58:34;1.43;;;1.33;;
12228;SDS011;6177;52.402;9.800;2023-01-28T10:10:29;1.57;;;1.47;;
12228;SDS011;6177;52.402;9.800;2023-01-28T10:13:40;2.80;;;2.60;;
12228;SDS011;6177;52.402;9.800;2023-01-28T10:16:36;3.33;;;2.80;;
12228;SDS011;6177;52.402;9.800;2023-01-28T10:19:32;1.63;;;1.63;;
12228;SDS011;6177;52.402;9.800;2023-01-28T10:25:45;2.53;;;2.37;;
12228;SDS011;6177;52.402;9.800;2023-01-28T10:28:37;2.00;;;1.90;;
12228;SDS011;6177;52.402;9.800;2023-01-28T10:31:30;1.60;;;1.60;;
12228;SDS011;6177;52.402;9.800;2023-01-28T10:34:22;1.47;;;1.43;;
12228;SDS011;6177;52.402;9.800;2023-01-28T10:37:13;1.60;;;1.50;;
12228;SDS011;6177;52.402;9.800;2023-01-28T10:40:04;1.70;;;1.60;;
12228;SDS011;6177;52.402;9.800;2023-01-28T10:42:56;1.70;;;1.60;;
12228;SDS011;6177;52.402;9.800;2023-01-28T10:49:13;1.83;;;1.73;;
12228;SDS011;6177;52.402;9.800;2023-01-28T10:52:14;1.93;;;1.70;;
12228;SDS011;6177;52.402;9.800;2023-01-28T10:55:05;2.27;;;2.17;;
12228;SDS011;6177;52.402;9.800;2023-01-28T10:57:56;1.43;;;1.43;;
12228;SDS011;6177;52.402;9.800;2023-01-28T11:00:51;2.87;;;2.40;;
12228;SDS011;6177;52.402;9.800;2023-01-28T11:03:52;2.03;;;1.80;;
12228;SDS011;6177;52.402;9.800;2023-01-28T11:07:14;2.47;;;2.30;;
12228;SDS011;6177;52.402;9.800;2023-01-28T11:09:57;2.00;;;1.80;;
12228;SDS011;6177;52.402;9.800;2023-01-28T11:12:53;2.77;;;1.70;;
12228;SDS011;6177;52.402;9.800;2023-01-28T11:18:53;2.20;;;1.63;;
12228;SDS011;6177;52.402;9.800;2023-01-28T11:21:53;1.60;;;1.50;;
12228;SDS011;6177;52.402;9.800;2023-01-28T11:24:45;2.03;;;2.00;;
12228;SDS011;6177;52.402;9.800;2023-01-28T11:27:35;1.77;;;1.67;;
12228;SDS011;6177;52.402;9.800;2023-01-28T11:30:27;1.80;;;1.70;;
12228;SDS011;6177;52.402;9.800;2023-01-28T11:33:23;1.87;;;1.73;;
12228;SDS011;6177;52.402;9.800;2023-01-28T11:36:28;1.77;;;1.73;;
12228;SDS011;6177;52.402;9.800;2023-01-28T11:39:24;1.93;;;1.67;;
12228;SDS011;6177;52.402;9.800;2023-01-28T11:42:19;2.83;;;1.93;;
12228;SDS011;6177;52.402;9.800;2023-01-28T11:45:18;1.83;;;1.70;;
12228;SDS011;6177;52.402;9.800;2023-01-28T11:58:02;1.73;;;1.63;;
12228;SDS011;6177;52.402;9.800;2023-01-28T12:07:36;2.93;;;2.70;;
12228;SDS011;6177;52.402;9.800;2023-01-28T12:16:51;2.40;;;2.20;;
12228;SDS011;6177;52.402;9.800;2023-01-28T12:38:50;2.33;;;2.23;;
12228;SDS011;6177;52.402;9.800;2023-01-28T12:48:33;3.33;;;2.57;;
12228;SDS011;6177;52.402;9.800;2023-01-28T12:51:31;2.80;;;2.60;;
12228;SDS011;6177;52.402;9.800;2023-01-28T12:57:36;3.90;;;2.63;;
12228;SDS011;6177;52.402;9.800;2023-01-28T13:00:34;2.80;;;2.60;;
12228;SDS011;6177;52.402;9.800;2023-01-28T13:03:30;3.07;;;2.70;;
12228;SDS011;6177;52.402;9.800;2023-01-28T13:06:26;2.57;;;2.37;;
12228;SDS011;6177;52.402;9.800;2023-01-28T13:09:21;2.83;;;2.70;;
12228;SDS011;6177;52.402;9.800;2023-01-28T13:12:14;3.23;;;2.70;;
12228;SDS011;6177;52.402;9.800;2023-01-28T13:15:09;2.80;;;2.70;;
12228;SDS011;6177;52.402;9.800;2023-01-28T13:18:02;3.30;;;3.10;;
12228;SDS011;6177;52.402;9.800;2023-01-28T13:20:54;3.27;;;3.10;;
12228;SDS011;6177;52.402;9.800;2023-01-28T13:23:44;4.77;;;4.47;;
12228;SDS011;6177;52.402;9.800;2023-01-28T13:29:40;3.03;;;2.90;;
12228;SDS011;6177;52.402;9.800;2023-01-28T13:32:37;2.90;;;2.80;;
12228;SDS011;6177;52.402;9.800;2023-01-28T13:35:35;2.73;;;2.43;;
12228;SDS011;6177;52.402;9.800;2023-01-28T13:38:28;3.40;;;3.07;;
12228;SDS011;6177;52.402;9.800;2023-01-28T13:41:19;2.97;;;2.87;;
12228;SDS011;6177;52.402;9.800;2023-01-28T13:47:26;3.80;;;3.60;;
12228;SDS011;6177;52.402;9.800;2023-01-28T13:50:23;4.40;;;3.20;;
12228;SDS011;6177;52.402;9.800;2023-01-28T14:02:47;4.00;;;3.70;;
12228;SDS011;6177;52.402;9.800;2023-01-28T14:09:22;4.50;;;4.17;;
12228;SDS011;6177;52.402;9.800;2023-01-28T14:18:38;4.97;;;4.77;;
12228;SDS011;6177;52.402;9.800;2023-01-28T14:21:33;5.60;;;5.27;;
12228;SDS011;6177;52.402;9.800;2023-01-28T14:24:25;5.07;;;4.87;;
12228;SDS011;6177;52.402;9.800;2023-01-28T14:27:17;5.03;;;4.93;;
12228;SDS011;6177;52.402;9.800;2023-01-28T14:30:24;4.97;;;4.77;;
12228;SDS011;6177;52.402;9.800;2023-01-28T14:33:20;4.90;;;4.70;;
12228;SDS011;6177;52.402;9.800;2023-01-28T14:36:11;4.50;;;4.30;;
12228;SDS011;6177;52.402;9.800;2023-01-28T14:39:02;4.60;;;4.30;;
12228;SDS011;6177;52.402;9.800;2023-01-28T14:41:53;4.07;;;3.97;;
12228;SDS011;6177;52.402;9.800;2023-01-28T14:44:47;3.83;;;3.63;;
12228;SDS011;6177;52.402;9.800;2023-01-28T14:47:59;4.33;;;3.93;;
12228;SDS011;6177;52.402;9.800;2023-01-28T14:51:17;5.17;;;4.23;;
12228;SDS011;6177;52.402;9.800;2023-01-28T15:01:04;4.43;;;4.20;;
12228;SDS011;6177;52.402;9.800;2023-01-28T15:04:30;4.20;;;4.10;;
12228;SDS011;6177;52.402;9.800;2023-01-28T15:07:23;4.97;;;4.63;;
12228;SDS011;6177;52.402;9.800;2023-01-28T15:10:20;4.50;;;4.30;;
12228;SDS011;6177;52.402;9.800;2023-01-28T15:13:14;4.80;;;4.60;;
12228;SDS011;6177;52.402;9.800;2023-01-28T15:16:15;5.43;;;5.13;;
12228;SDS011;6177;52.402;9.800;2023-01-28T15:19:08;5.03;;;4.83;;
12228;SDS011;6177;52.402;9.800;2023-01-28T15:22:00;5.30;;;5.10;;
12228;SDS011;6177;52.402;9.800;2023-01-28T15:24:52;5.43;;;5.10;;
12228;SDS011;6177;52.402;9.800;2023-01-28T15:27:42;5.77;;;5.20;;
12228;SDS011;6177;52.402;9.800;2023-01-28T15:30:33;5.60;;;5.40;;
12228;SDS011;6177;52.402;9.800;2023-01-28T15:33:24;6.23;;;5.93;;
12228;SDS011;6177;52.402;9.800;2023-01-28T15:36:15;6.47;;;6.07;;
12228;SDS011;6177;52.402;9.800;2023-01-28T15:39:12;6.20;;;5.90;;
12228;SDS011;6177;52.402;9.800;2023-01-28T15:42:15;6.03;;;5.70;;
12228;SDS011;6177;52.402;9.800;2023-01-28T15:45:18;6.43;;;6.10;;
12228;SDS011;6177;52.402;9.800;2023-01-28T15:48:11;6.10;;;5.70;;
12228;SDS011;6177;52.402;9.800;2023-01-28T15:51:02;7.60;;;7.00;;
12228;SDS011;6177;52.402;9.800;2023-01-28T15:53:58;6.50;;;6.20;;
12228;SDS011;6177;52.402;9.800;2023-01-28T15:56:50;7.17;;;6.67;;
12228;SDS011;6177;52.402;9.800;2023-01-28T15:59:41;7.03;;;6.63;;
12228;SDS011;6177;52.402;9.800;2023-01-28T16:02:41;7.33;;;6.87;;
12228;SDS011;6177;52.402;9.800;2023-01-28T16:11:28;7.80;;;7.20;;
12228;SDS011;6177;52.402;9.800;2023-01-28T16:14:26;7.77;;;7.17;;
12228;SDS011;6177;52.402;9.800;2023-01-28T16:20:40;9.20;;;8.50;;
12228;SDS011;6177;52.402;9.800;2023-01-28T16:23:31;9.60;;;8.83;;
12228;SDS011;6177;52.402;9.800;2023-01-28T16:26:22;10.70;;;9.90;;
12228;SDS011;6177;52.402;9.800;2023-01-28T16:29:14;11.63;;;10.83;;
12228;SDS011;6177;52.402;9.800;2023-01-28T16:32:23;11.53;;;10.63;;
12228;SDS011;6177;52.402;9.800;2023-01-28T16:35:18;10.63;;;9.63;;
12228;SDS011;6177;52.402;9.800;2023-01-28T16:38:09;9.63;;;8.93;;
12228;SDS011;6177;52.402;9.800;2023-01-28T16:41:00;10.33;;;9.60;;
12228;SDS011;6177;52.402;9.800;2023-01-28T16:43:51;10.20;;;9.50;;
12228;SDS011;6177;52.402;9.800;2023-01-28T16:46:42;9.73;;;9.10;;
12228;SDS011;6177;52.402;9.800;2023-01-28T16:49:33;9.53;;;8.93;;
12228;SDS011;6177;52.402;9.800;2023-01-28T16:52:24;10.53;;;9.80;;
12228;SDS011;6177;52.402;9.800;2023-01-28T16:55:16;10.60;;;9.70;;
12228;SDS011;6177;52.402;9.800;2023-01-28T16:58:08;10.13;;;9.43;;
12228;SDS011;6177;52.402;9.800;2023-01-28T17:00:58;10.27;;;9.47;;
12228;SDS011;6177;52.402;9.800;2023-01-28T17:03:49;11.53;;;10.63;;
12228;SDS011;6177;52.402;9.800;2023-01-28T17:06:41;9.80;;;9.07;;
12228;SDS011;6177;52.402;9.800;2023-01-28T17:09:33;10.60;;;9.63;;
12228;SDS011;6177;52.402;9.800;2023-01-28T17:12:24;10.67;;;9.77;;
12228;SDS011;6177;52.402;9.800;2023-01-28T17:15:15;12.00;;;10.77;;
12228;SDS011;6177;52.402;9.800;2023-01-28T17:18:08;11.37;;;10.43;;
12228;SDS011;6177;52.402;9.800;2023-01-28T17:21:08;11.67;;;10.77;;
12228;SDS011;6177;52.402;9.800;2023-01-28T17:24:00;12.33;;;11.10;;
12228;SDS011;6177;52.402;9.800;2023-01-28T17:26:52;12.40;;;11.40;;
12228;SDS011;6177;52.402;9.800;2023-01-28T17:29:43;13.03;;;11.80;;
12228;SDS011;6177;52.402;9.800;2023-01-28T17:32:34;13.07;;;11.93;;
12228;SDS011;6177;52.402;9.800;2023-01-28T17:35:25;13.60;;;12.27;;
12228;SDS011;6177;52.402;9.800;2023-01-28T17:38:16;13.33;;;12.00;;
12228;SDS011;6177;52.402;9.800;2023-01-28T17:41:07;13.20;;;12.00;;
12228;SDS011;6177;52.402;9.800;2023-01-28T17:43:59;13.13;;;12.07;;
12228;SDS011;6177;52.402;9.800;2023-01-28T17:46:50;12.93;;;11.83;;
12228;SDS011;6177;52.402;9.800;2023-01-28T17:49:41;12.77;;;11.67;;
12228;SDS011;6177;52.402;9.800;2023-01-28T17:52:32;13.60;;;12.27;;
12228;SDS011;6177;52.402;9.800;2023-01-28T17:55:23;12.97;;;11.87;;
12228;SDS011;6177;52.402;9.800;2023-01-28T17:58:14;13.33;;;12.10;;
12228;SDS011;6177;52.402;9.800;2023-01-28T18:01:09;14.10;;;12.67;;
12228;SDS011;6177;52.402;9.800;2023-01-28T18:04:00;13.57;;;12.43;;
12228;SDS011;6177;52.402;9.800;2023-01-28T18:06:51;12.63;;;11.63;;
12228;SDS011;6177;52.402;9.800;2023-01-28T18:09:42;14.03;;;12.80;;
12228;SDS011;6177;52.402;9.800;2023-01-28T18:12:35;14.90;;;13.13;;
12228;SDS011;6177;52.402;9.800;2023-01-28T18:15:26;15.60;;;13.57;;
12228;SDS011;6177;52.402;9.800;2023-01-28T18:18:17;16.70;;;13.77;;
12228;SDS011;6177;52.402;9.800;2023-01-28T18:21:28;15.33;;;13.77;;
12228;SDS011;6177;52.402;9.800;2023-01-28T18:24:21;14.20;;;12.90;;
12228;SDS011;6177;52.402;9.800;2023-01-28T18:27:13;12.30;;;11.20;;
12228;SDS011;6177;52.402;9.800;2023-01-28T18:30:04;13.53;;;12.30;;
12228;SDS011;6177;52.402;9.800;2023-01-28T18:32:55;13.13;;;11.87;;
12228;SDS011;6177;52.402;9.800;2023-01-28T18:35:46;12.43;;;11.27;;
12228;SDS011;6177;52.402;9.800;2023-01-28T18:38:38;13.37;;;12.27;;
12228;SDS011;6177;52.402;9.800;2023-01-28T18:41:29;12.77;;;11.57;;
12228;SDS011;6177;52.402;9.800;2023-01-28T18:44:20;13.67;;;12.33;;
12228;SDS011;6177;52.402;9.800;2023-01-28T18:47:12;13.80;;;12.50;;
12228;SDS011;6177;52.402;9.800;2023-01-28T18:50:03;14.63;;;13.20;;
12228;SDS011;6177;52.402;9.800;2023-01-28T18:52:54;13.90;;;12.57;;
12228;SDS011;6177;52.402;9.800;2023-01-28T18:55:45;12.87;;;11.53;;
12228;SDS011;6177;52.402;9.800;2023-01-28T18:58:36;12.90;;;11.70;;
12228;SDS011;6177;52.402;9.800;2023-01-28T19:01:29;14.37;;;12.97;;
12228;SDS011;6177;52.402;9.800;2023-01-28T19:04:21;13.83;;;12.60;;
12228;SDS011;6177;52.402;9.800;2023-01-28T19:07:12;12.93;;;11.83;;
12228;SDS011;6177;52.402;9.800;2023-01-28T19:10:03;12.10;;;10.93;;
12228;SDS011;6177;52.402;9.800;2023-01-28T19:12:54;13.53;;;12.40;;
12228;SDS011;6177;52.402;9.800;2023-01-28T19:15:45;13.07;;;11.83;;
12228;SDS011;6177;52.402;9.800;2023-01-28T19:18:36;13.57;;;12.23;;
12228;SDS011;6177;52.402;9.800;2023-01-28T19:21:28;13.20;;;12.00;;
12228;SDS011;6177;52.402;9.800;2023-01-28T19:24:19;14.03;;;12.63;;
12228;SDS011;6177;52.402;9.800;2023-01-28T19:27:10;13.30;;;12.17;;
12228;SDS011;6177;52.402;9.800;2023-01-28T19:30:01;13.23;;;11.93;;
12228;SDS011;6177;52.402;9.800;2023-01-28T19:32:52;13.63;;;11.93;;
12228;SDS011;6177;52.402;9.800;2023-01-28T19:35:43;13.50;;;12.30;;
12228;SDS011;6177;52.402;9.800;2023-01-28T19:38:35;13.87;;;12.67;;
12228;SDS011;6177;52.402;9.800;2023-01-28T19:41:27;14.80;;;13.07;;
12228;SDS011;6177;52.402;9.800;2023-01-28T19:44:18;13.97;;;11.90;;
12228;SDS011;6177;52.402;9.800;2023-01-28T19:47:09;13.87;;;12.50;;
12228;SDS011;6177;52.402;9.800;2023-01-28T19:50:00;13.63;;;12.33;;
12228;SDS011;6177;52.402;9.800;2023-01-28T19:52:51;13.23;;;12.03;;
12228;SDS011;6177;52.402;9.800;2023-01-28T19:55:42;13.80;;;12.50;;
12228;SDS011;6177;52.402;9.800;2023-01-28T19:58:37;13.50;;;12.40;;
12228;SDS011;6177;52.402;9.800;2023-01-28T20:01:29;12.70;;;11.50;;
12228;SDS011;6177;52.402;9.800;2023-01-28T20:04:20;12.30;;;11.17;;